Skip to main content.
 TIME   TEMPERATURE   WINDSPEED   DIRECTION   HUMIDITY   BAROMETER   RAINFALL 
10:01 13.9°C (57.0°F) 13.0 kmh (8.1 mph) SE 89% 1000.5hPa (29.54 inHg) 0.8mm (0.03 in.)
9:01 12.5°C (54.5 °F) 3.7 kmh (2.3 mph) ESE 90% 1001.2hPa (29.57 inHg) 0.3mm (0.01 in.)
8:01 12.5°C (54.5 °F) 3.7 kmh (2.3 mph) E 83% 1001.2hPa (29.57 inHg) 0.0mm (0.00 in.)
7:01 12.2°C (54.0 °F) 0.0 kmh (0.0 mph) ESE 83% 1001.4hPa (29.57 inHg) 0.0mm (0.00 in.)
6:01 12.3°C (54.1 °F) 7.4 kmh (4.6 mph) SE 77% 1001.1hPa (29.56 inHg) 0.0mm (0.00 in.)
5:01 11.7°C (53.1 °F) 5.6 kmh (3.5 mph) SE 81% 1001.2hPa (29.57 inHg) 0.0mm (0.00 in.)
4:01 11.3°C (52.3 °F) 3.7 kmh (2.3 mph) SSE 78% 1000.9hPa (29.56 inHg) 0.0mm (0.00 in.)
3:01 11.2°C (52.2 °F) 0.0 kmh (0.0 mph) SSW 77% 1001.1hPa (29.56 inHg) 0.0mm (0.00 in.)
2:01 10.7°C (51.3 °F) 0.0 kmh (0.0 mph) 80% 1002.1hPa (29.59 inHg) 0.0mm (0.00 in.)
1:01 9.9°C (49.8 °F) 1.9 kmh (1.2 mph) WNW 81% 1002.9hPa (29.62 inHg) 0.0mm (0.00 in.)
0:01 9.9°C (49.8 °F) 0.0 kmh (0.0 mph) WNW 81% 1002.6hPa (29.61 inHg) 0.0mm (0.00 in.)
23:01 9.9°C (49.8 °F) 0.0 kmh (0.0 mph) WNW 80% 1002.8hPa (29.61 inHg) 0.0mm (0.00 in.)
22:01 9.9°C (49.8 °F) 0.0 kmh (0.0 mph) WNW 80% 1002.8hPa (29.61 inHg) 0.0mm (0.00 in.)
20:57 10.6°C (51.1 °F) 0.0 kmh (0.0 mph) WNW 78% 1002.5hPa (29.60 inHg) 0.0mm (0.00 in.)
19:57 11.3°C (52.3 °F) 0.0 kmh (0.0 mph) WNW 77% 1002.0hPa (29.59 inHg) 0.0mm (0.00 in.)
18:57 11.2°C (52.2 °F) 1.9 kmh (1.2 mph) WSW 75% 1001.7hPa (29.58 inHg) 0.0mm (0.00 in.)
17:57 11.7°C (53.1 °F) 1.9 kmh (1.2 mph) WSW 73% 1000.9hPa (29.56 inHg) 0.0mm (0.00 in.)
16:57 13.1°C (55.6 °F) 0.0 kmh (0.0 mph) WNW 73% 1000.6hPa (29.55 inHg) 0.0mm (0.00 in.)
15:57 14.2°C (57.6 °F) 3.7 kmh (2.3 mph) SSW 67% 1000.2hPa (29.54 inHg) 0.0mm (0.00 in.)
14:57 14.4°C (57.9 °F) 3.7 kmh (2.3 mph) W 65% 999.9hPa (29.53 inHg) 0.0mm (0.00 in.)
13:57 14.4°C (57.9 °F) 5.6 kmh (3.5 mph) WSW 67% 999.9hPa (29.53 inHg) 0.0mm (0.00 in.)
12:57 14.5°C (58.1 °F) 5.6 kmh (3.5 mph) WNW 69% 999.9hPa (29.53 inHg) 0.0mm (0.00 in.)
11:57 13.7°C (56.7 °F) 1.9 kmh (1.2 mph) S 72% 1000.1hPa (29.53 inHg) 0.0mm (0.00 in.)
10:57 13.7°C (56.7 °F) 7.4 kmh (4.6 mph) SW 73% 999.8hPa (29.52 inHg) 0.0mm (0.00 in.)